Time;durP1;ratioP1;P1;durP2;ratioP2;P2;SDS_P1;SDS_P2;PMS_P1;PMS_P2;Temp;Humidity;BMP_temperature;BMP_pressure;BME280_temperature;BME280_humidity;BME280_pressure;Samples;Min_cycle;Max_cycle;Signal;HPM_P1;HPM_P2
2022/03/05 00:02:01;;;;;;;35.92;12.82;;;;;;;;;;5060451;28;20198;-74
2022/03/05 00:04:30;;;;;;;31.27;11.85;;;-0.40;1.00;;;;;;5068748;28;20265;-74
2022/03/05 00:07:07;;;;;;;37.05;13.07;;;-0.50;1.00;;;;;;5049067;28;20531;-74
2022/03/05 00:09:32;;;;;;;29.42;11.45;;;-0.40;1.00;;;;;;5069411;28;20173;-74
2022/03/05 00:11:59;;;;;;;29.00;11.63;;;-0.50;1.00;;;;;;5054663;28;20172;-74
2022/03/05 00:14:30;;;;;;;41.55;13.60;;;-0.50;1.00;;;;;;5066980;28;20207;-74
2022/03/05 00:17:06;;;;;;;33.25;12.35;;;-0.60;1.00;;;;;;5055859;28;20686;-74
2022/03/05 00:19:36;;;;;;;34.63;12.93;;;-0.60;1.00;;;;;;5068811;28;20273;-74
2022/03/05 00:22:05;;;;;;;38.40;13.50;;;-0.60;1.00;;;;;;5063447;28;20184;-74
2022/03/05 00:24:36;;;;;;;32.85;12.73;;;-0.70;1.00;;;;;;5054765;28;20241;-74
2022/03/05 00:27:06;;;;;;;35.45;11.45;;;-0.70;1.00;;;;;;5053331;28;20693;-73
2022/03/05 00:29:31;;;;;;;30.80;11.40;;;-0.70;1.00;;;;;;5054805;28;20176;-75
2022/03/05 00:31:57;;;;;;;40.03;12.00;;;-0.70;1.00;;;;;;5055506;28;20242;-73
2022/03/05 00:34:23;;;;;;;28.40;11.30;;;-0.70;1.00;;;;;;5055218;28;20168;-74
2022/03/05 00:36:54;;;;;;;28.77;11.00;;;-0.70;1.00;;;;;;5054978;28;20212;-73
2022/03/05 00:39:19;;;;;;;37.33;13.15;;;-0.70;1.00;;;;;;5054744;28;20167;-73
2022/03/05 00:41:53;;;;;;;29.87;11.70;;;-0.80;1.00;;;;;;5055519;28;20628;-73
2022/03/05 00:44:24;;;;;;;32.55;11.63;;;-0.80;1.00;;;;;;5056871;28;20659;-73
2022/03/05 00:46:49;;;;;;;36.65;11.48;;;-0.80;1.00;;;;;;5055759;28;20202;-74
2022/03/05 00:49:17;;;;;;;30.33;11.43;;;-0.80;1.00;;;;;;5074888;28;20155;-74
2022/03/05 00:52:00;;;;;;;34.92;12.25;;;-0.80;1.00;;;;;;5058425;28;20175;-74
2022/03/05 00:54:26;;;;;;;30.95;12.85;;;-0.80;1.00;;;;;;5053059;28;20670;-73
2022/03/05 00:56:54;;;;;;;37.10;12.07;;;-0.80;1.00;;;;;;5053223;28;20171;-74
2022/03/05 00:59:19;;;;;;;35.30;12.27;;;-0.80;1.00;;;;;;5054422;28;20417;-74
2022/03/05 01:01:45;;;;;;;29.03;11.83;;;-0.80;1.00;;;;;;5054724;28;20194;-73
2022/03/05 01:04:12;;;;;;;30.03;12.30;;;-0.80;1.00;;;;;;5054168;28;20209;-74
2022/03/05 01:06:38;;;;;;;31.50;12.70;;;;;;;;;;5053965;28;20223;-73
2022/03/05 01:09:12;;;;;;;31.38;11.98;;;-0.90;1.00;;;;;;5054258;28;20688;-73
2022/03/05 01:11:37;;;;;;;28.63;11.48;;;-0.80;1.00;;;;;;5054116;28;20172;-73
2022/03/05 01:14:07;;;;;;;34.17;11.40;;;-0.90;1.00;;;;;;5054181;28;20160;-73
2022/03/05 01:16:34;;;;;;;32.60;12.45;;;-0.90;1.00;;;;;;5053828;28;20175;-73
2022/03/05 01:19:00;;;;;;;29.90;11.65;;;-0.90;1.00;;;;;;5054236;28;20163;-73
2022/03/05 01:21:27;;;;;;;27.05;11.57;;;-0.90;1.00;;;;;;5054163;28;20202;-73
2022/03/05 01:23:54;;;;;;;26.88;11.30;;;-1.00;1.00;;;;;;5053737;28;20317;-73
2022/03/05 01:26:20;;;;;;;35.70;12.25;;;-1.00;1.00;;;;;;5053614;28;20226;-73
2022/03/05 01:28:46;;;;;;;32.73;11.97;;;-1.00;1.00;;;;;;5054819;28;20643;-73
2022/03/05 01:31:12;;;;;;;30.90;11.80;;;;;;;;;;5066196;28;20547;-73
2022/03/05 01:33:38;;;;;;;37.00;12.77;;;-1.00;1.00;;;;;;5054066;28;20259;-74
2022/03/05 01:36:04;;;;;;;33.43;12.07;;;-1.10;1.00;;;;;;5053729;28;20698;-74
2022/03/05 01:38:36;;;;;;;29.65;11.30;;;-1.10;1.00;;;;;;5053924;28;20171;-74
2022/03/05 01:41:12;;;;;;;29.65;11.30;;;-1.10;1.00;;;;;;5055006;28;20180;-74
2022/03/05 01:43:37;;;;;;;29.88;10.55;;;-1.10;1.00;;;;;;5067955;28;20200;-74
2022/03/05 01:46:03;;;;;;;30.03;11.03;;;-1.10;1.00;;;;;;5063535;28;20223;-74
2022/03/05 01:48:29;;;;;;;32.67;11.90;;;;;;;;;;5067576;28;20773;-74
2022/03/05 01:51:05;;;;;;;30.65;11.75;;;-1.10;1.00;;;;;;5052448;28;20271;-74
2022/03/05 01:53:42;;;;;;;29.13;11.27;;;-1.10;1.00;;;;;;5054588;28;20530;-74
2022/03/05 01:56:13;;;;;;;40.00;11.48;;;-1.10;1.00;;;;;;5055766;28;20213;-74
2022/03/05 01:58:42;;;;;;;34.33;11.55;;;-1.20;1.00;;;;;;5064666;28;20179;-73
2022/03/05 02:01:12;;;;;;;35.40;12.68;;;-1.20;1.00;;;;;;5073719;28;20218;-74
2022/03/05 02:03:38;;;;;;;34.22;11.88;;;-1.20;1.00;;;;;;5048969;28;20176;-75
2022/03/05 02:06:12;;;;;;;31.17;10.63;;;-1.20;1.00;;;;;;5053818;28;20614;-73
2022/03/05 02:08:38;;;;;;;31.70;11.13;;;;;;;;;;5061699;28;20471;-74
2022/03/05 02:11:04;;;;;;;29.92;11.15;;;;;;;;;;5057351;28;20708;-74
2022/03/05 02:13:30;;;;;;;31.40;11.23;;;;;;;;;;5051707;28;20182;-74
2022/03/05 02:15:57;;;;;;;28.20;11.43;;;-1.30;1.00;;;;;;5033535;28;20180;-74
2022/03/05 02:18:30;;;;;;;35.17;12.27;;;-1.20;1.00;;;;;;5048239;28;20183;-73
2022/03/05 02:20:56;;;;;;;33.40;13.00;;;-1.30;1.00;;;;;;5053465;28;20171;-74
2022/03/05 02:23:22;;;;;;;29.30;10.90;;;-1.30;1.00;;;;;;5053151;28;20630;-73
2022/03/05 02:25:54;;;;;;;36.20;12.00;;;-1.30;1.00;;;;;;5065894;28;20212;-73
2022/03/05 02:28:22;;;;;;;39.67;12.65;;;-1.30;1.00;;;;;;5052015;28;20266;-74
2022/03/05 02:30:48;;;;;;;36.90;11.65;;;-1.30;1.00;;;;;;5052928;28;20176;-74
2022/03/05 02:33:14;;;;;;;32.95;12.15;;;-1.40;1.00;;;;;;5065048;28;20166;-73
2022/03/05 02:35:45;;;;;;;31.60;11.93;;;-1.40;1.00;;;;;;5055937;28;20184;-73
2022/03/05 02:38:13;;;;;;;34.35;12.57;;;-1.30;1.00;;;;;;5057401;28;20179;-73
2022/03/05 02:40:39;;;;;;;32.88;11.68;;;;;;;;;;5056641;28;20510;-73
2022/03/05 02:43:07;;;;;;;36.88;12.43;;;-1.40;1.00;;;;;;5056944;28;20612;-73
2022/03/05 02:45:37;;;;;;;43.20;11.60;;;-1.40;1.00;;;;;;5056505;28;20250;-73
2022/03/05 02:48:05;;;;;;;33.40;11.90;;;-1.40;1.00;;;;;;5055993;28;20215;-73
2022/03/05 02:50:31;;;;;;;33.10;12.00;;;-1.30;1.00;;;;;;5060812;28;20241;-73
2022/03/05 02:52:57;;;;;;;31.67;11.43;;;-1.40;1.00;;;;;;5070367;28;20178;-74
2022/03/05 02:55:23;;;;;;;35.67;12.40;;;-1.40;1.00;;;;;;5056604;28;20171;-74
2022/03/05 02:57:49;;;;;;;37.80;11.30;;;-1.40;1.00;;;;;;5056337;28;20605;-74
2022/03/05 03:00:15;;;;;;;33.97;11.60;;;-1.40;1.00;;;;;;5050542;28;20201;-74
2022/03/05 03:02:45;;;;;;;35.90;11.90;;;-1.40;1.00;;;;;;5057110;28;20247;-74
2022/03/05 03:05:16;;;;;;;31.80;10.80;;;-1.40;1.00;;;;;;5056403;28;20465;-74
2022/03/05 03:07:42;;;;;;;35.58;10.68;;;-1.40;1.00;;;;;;5056104;28;20183;-74
2022/03/05 03:10:13;;;;;;;39.80;12.18;;;-1.40;1.00;;;;;;5056406;28;20172;-74
2022/03/05 03:12:39;;;;;;;37.92;12.15;;;-1.50;1.00;;;;;;5058678;28;20160;-73
2022/03/05 03:15:07;;;;;;;32.28;11.43;;;-1.50;1.00;;;;;;5067854;28;20180;-73
2022/03/05 03:17:49;;;;;;;34.17;12.38;;;-1.50;1.00;;;;;;5056249;28;20171;-74
2022/03/05 03:20:21;;;;;;;38.80;11.63;;;-1.50;1.00;;;;;;5056708;28;20174;-74
2022/03/05 03:22:48;;;;;;;33.53;12.07;;;-1.50;1.00;;;;;;5066026;28;20190;-73
2022/03/05 03:25:14;;;;;;;34.15;12.00;;;-1.60;1.00;;;;;;5064284;28;20199;-74
2022/03/05 03:27:40;;;;;;;33.17;12.60;;;-1.60;1.00;;;;;;5056058;28;20168;-74
2022/03/05 03:30:12;;;;;;;37.83;12.97;;;-1.60;1.00;;;;;;5068520;28;20659;-73
2022/03/05 03:32:48;;;;;;;33.10;11.85;;;-1.60;1.00;;;;;;5056074;28;20433;-73
2022/03/05 03:35:18;;;;;;;34.47;11.77;;;-1.60;1.00;;;;;;5066136;28;20567;-73
2022/03/05 03:37:45;;;;;;;33.95;12.20;;;-1.60;1.00;;;;;;5064416;28;20167;-73
2022/03/05 03:40:13;;;;;;;35.53;12.45;;;-1.60;1.00;;;;;;5069248;28;20167;-73
2022/03/05 03:42:39;;;;;;;35.88;12.68;;;-1.60;1.00;;;;;;5057083;28;20654;-73
2022/03/05 03:45:06;;;;;;;38.70;12.98;;;-1.60;1.00;;;;;;5053821;28;20287;-73
2022/03/05 03:47:44;;;;;;;34.15;12.18;;;-1.60;1.00;;;;;;5057916;28;20199;-74
2022/03/05 03:50:12;;;;;;;33.33;11.93;;;-1.60;1.00;;;;;;5059683;28;20186;-74
2022/03/05 03:52:38;;;;;;;40.33;12.15;;;-1.70;1.00;;;;;;5065462;28;20636;-74
2022/03/05 03:55:08;;;;;;;35.57;12.30;;;-1.60;1.00;;;;;;5057097;28;20253;-74
2022/03/05 03:57:42;;;;;;;41.13;12.18;;;-1.70;1.00;;;;;;5055321;28;20631;-74
2022/03/05 04:00:11;;;;;;;34.90;11.65;;;-1.70;1.00;;;;;;5060981;28;20202;-74
2022/03/05 04:02:42;;;;;;;34.13;11.73;;;-1.70;1.00;;;;;;5055065;28;20175;-73
2022/03/05 04:05:09;;;;;;;36.85;11.98;;;-1.70;1.00;;;;;;5068930;28;20203;-73
2022/03/05 04:10:24;;;;;;;30.02;12.30;;;-1.70;1.00;;;;;;5035538;28;20203;-73
2022/03/05 04:12:50;;;;;;;29.45;11.93;;;-1.70;1.00;;;;;;5055470;28;20175;-73
2022/03/05 04:15:17;;;;;;;38.03;12.43;;;-1.70;1.00;;;;;;5054797;28;20199;-73
2022/03/05 04:17:54;;;;;;;29.65;11.48;;;-1.70;1.00;;;;;;5055134;28;20184;-73
2022/03/05 04:20:20;;;;;;;34.15;12.10;;;-1.80;1.00;;;;;;5066708;28;20635;-74
2022/03/05 04:22:45;;;;;;;35.13;11.77;;;-1.80;1.00;;;;;;5057446;28;20228;-74
2022/03/05 04:25:11;;;;;;;34.17;12.83;;;-1.90;1.00;;;;;;5063974;28;20459;-73
2022/03/05 04:27:48;;;;;;;35.60;12.33;;;-1.90;1.00;;;;;;5070463;28;20637;-74
2022/03/05 04:30:18;;;;;;;40.50;13.18;;;-1.90;1.00;;;;;;5058431;28;20819;-73
2022/03/05 04:32:54;;;;;;;40.05;12.13;;;-1.90;1.00;;;;;;5042016;28;20651;-74
2022/03/05 04:35:24;;;;;;;32.50;11.93;;;-1.90;1.00;;;;;;5054941;28;20633;-73
2022/03/05 04:37:54;;;;;;;32.00;12.20;;;-1.90;1.00;;;;;;5043367;28;20179;-74
2022/03/05 04:40:20;;;;;;;29.67;11.15;;;-1.90;1.00;;;;;;5068204;28;20179;-74
2022/03/05 04:42:46;;;;;;;45.13;13.00;;;-1.90;1.00;;;;;;5064021;28;20182;-74
2022/03/05 04:45:18;;;;;;;41.53;13.27;;;-1.90;1.00;;;;;;5058725;28;20211;-74
2022/03/05 04:47:48;;;;;;;38.00;13.25;;;-2.00;1.00;;;;;;5062323;28;20755;-73
2022/03/05 04:50:14;;;;;;;32.90;11.95;;;-2.00;1.00;;;;;;5054951;28;20184;-73
2022/03/05 04:52:42;;;;;;;39.10;12.73;;;-2.00;1.00;;;;;;5054443;28;20581;-73
2022/03/05 04:55:08;;;;;;;33.40;12.52;;;-2.00;1.00;;;;;;5071530;28;20432;-73
2022/03/05 04:57:34;;;;;;;31.17;12.63;;;-2.10;1.00;;;;;;5066313;28;20800;-73
2022/03/05 04:59:59;;;;;;;36.67;12.33;;;-2.10;1.00;;;;;;5067466;28;20179;-74
2022/03/05 05:02:25;;;;;;;30.10;11.60;;;-2.10;1.00;;;;;;5054736;28;20183;-73
2022/03/05 05:04:54;;;;;;;31.07;12.00;;;-2.10;1.00;;;;;;5054713;28;20521;-73
2022/03/05 05:07:24;;;;;;;37.50;12.63;;;-2.10;1.00;;;;;;5053675;28;20679;-74
2022/03/05 05:09:54;;;;;;;37.25;12.48;;;-2.10;1.00;;;;;;5054591;28;20612;-73
2022/03/05 05:12:19;;;;;;;37.22;13.80;;;-2.10;1.00;;;;;;5053021;28;20180;-74
2022/03/05 05:14:48;;;;;;;45.97;13.90;;;-2.10;1.00;;;;;;5054162;28;20217;-74
2022/03/05 05:17:14;;;;;;;36.53;12.02;;;-2.10;1.00;;;;;;5065909;28;20171;-74
2022/03/05 05:19:42;;;;;;;38.20;12.97;;;-2.10;1.00;;;;;;5058610;28;20175;-74
2022/03/05 05:22:12;;;;;;;41.65;13.15;;;-2.10;1.00;;;;;;5066488;28;20546;-73
2022/03/05 05:24:39;;;;;;;34.38;11.73;;;-2.10;1.00;;;;;;5053079;28;20711;-73
2022/03/05 05:27:05;;;;;;;34.80;12.18;;;-2.10;1.00;;;;;;5053654;28;20176;-73
2022/03/05 05:29:31;;;;;;;38.83;12.97;;;-2.10;1.00;;;;;;5053940;28;20172;-74
2022/03/05 05:31:57;;;;;;;44.38;13.98;;;-2.10;1.00;;;;;;5058705;28;20180;-74
2022/03/05 05:34:23;;;;;;;39.80;13.15;;;-2.20;1.00;;;;;;5054112;28;20198;-73
2022/03/05 05:36:54;;;;;;;40.72;13.60;;;-2.20;1.00;;;;;;5062376;28;20271;-74
2022/03/05 05:39:19;;;;;;;35.63;13.48;;;-2.10;1.00;;;;;;5052209;28;20575;-73
2022/03/05 05:41:45;;;;;;;40.83;12.70;;;-2.10;1.00;;;;;;5054766;28;20258;-73
2022/03/05 05:44:11;;;;;;;36.80;13.33;;;-2.10;1.00;;;;;;5068905;28;20234;-73
2022/03/05 05:46:38;;;;;;;43.03;12.30;;;-2.20;1.00;;;;;;5054499;28;20352;-74
2022/03/05 05:49:06;;;;;;;36.35;13.85;;;-2.20;1.00;;;;;;5069192;28;20573;-73
2022/03/05 05:51:32;;;;;;;35.95;12.07;;;-2.20;1.00;;;;;;5054449;28;20180;-73
2022/03/05 05:53:59;;;;;;;43.47;13.40;;;-2.10;1.00;;;;;;5056638;28;20167;-74
2022/03/05 05:56:25;;;;;;;33.92;11.50;;;-2.10;1.00;;;;;;5053053;28;20636;-74
2022/03/05 05:58:53;;;;;;;36.95;13.00;;;-2.10;1.00;;;;;;5062073;28;20666;-73
2022/03/05 06:01:21;;;;;;;37.78;12.27;;;-2.10;1.00;;;;;;5053606;28;20292;-73
2022/03/05 06:03:49;;;;;;;33.38;12.70;;;-2.10;1.00;;;;;;5052448;28;20175;-74
2022/03/05 06:06:18;;;;;;;41.08;12.65;;;-2.10;1.00;;;;;;5058740;28;20187;-73
2022/03/05 06:08:44;;;;;;;33.65;12.45;;;-2.10;1.00;;;;;;5062860;28;20770;-73
2022/03/05 06:11:12;;;;;;;37.90;13.00;;;-2.10;1.00;;;;;;5053947;28;20182;-73
2022/03/05 06:13:38;;;;;;;36.17;12.50;;;-2.10;1.00;;;;;;5053363;28;20270;-73
2022/03/05 06:16:05;;;;;;;33.38;12.27;;;-2.10;1.00;;;;;;5052996;28;20172;-74
2022/03/05 06:18:30;;;;;;;43.72;13.48;;;-2.00;1.00;;;;;;5053540;28;20182;-73
2022/03/05 06:20:56;;;;;;;37.53;13.33;;;-2.00;1.00;;;;;;5053168;28;20595;-73
2022/03/05 06:23:23;;;;;;;39.13;13.10;;;-2.00;1.00;;;;;;5063061;28;20175;-73
2022/03/05 06:25:54;;;;;;;34.70;13.20;;;-2.00;1.00;;;;;;5065677;28;20282;-73
2022/03/05 06:28:20;;;;;;;37.13;13.95;;;-1.90;1.00;;;;;;5053257;28;20180;-73
2022/03/05 06:30:46;;;;;;;44.40;13.80;;;-1.90;1.00;;;;;;5052805;28;20214;-73
2022/03/05 06:33:12;;;;;;;40.70;12.60;;;-1.90;1.00;;;;;;5053026;28;20175;-73
2022/03/05 06:35:38;;;;;;;38.22;13.65;;;-1.80;1.00;;;;;;5056201;28;20190;-74
2022/03/05 06:38:04;;;;;;;37.73;13.00;;;-1.70;1.00;;;;;;5051735;28;20184;-73
2022/03/05 06:40:29;;;;;;;43.83;12.55;;;-1.70;1.00;;;;;;5052924;28;20168;-73
2022/03/05 06:42:55;;;;;;;42.37;13.50;;;-1.50;1.00;;;;;;5052568;28;20198;-73
2022/03/05 06:45:24;;;;;;;31.53;12.80;;;-1.60;1.00;;;;;;5050138;28;20203;-73
2022/03/05 06:47:49;;;;;;;43.80;13.63;;;-1.50;1.00;;;;;;5052979;28;20199;-73
2022/03/05 06:50:15;;;;;;;43.23;14.60;;;0.90;1.00;;;;;;5053372;28;20625;-73
2022/03/05 06:52:48;;;;;;;43.97;13.73;;;-1.40;1.00;;;;;;5052612;28;20246;-73
2022/03/05 06:55:18;;;;;;;37.42;14.68;;;-1.30;1.00;;;;;;5061515;28;20175;-73
2022/03/05 06:57:45;;;;;;;41.65;14.05;;;-1.20;1.00;;;;;;5053433;28;20241;-73
2022/03/05 07:00:13;;;;;;;41.88;13.35;;;-1.10;1.00;;;;;;5048711;28;20192;-74
2022/03/05 07:02:42;;;;;;;37.15;13.40;;;-1.00;1.00;;;;;;5054732;28;20571;-73
2022/03/05 07:05:09;;;;;;;43.63;14.43;;;-1.00;1.00;;;;;;5062495;28;20234;-73
2022/03/05 07:07:35;;;;;;;41.80;13.95;;;-0.80;1.00;;;;;;5053996;28;20234;-73
2022/03/05 07:10:01;;;;;;;38.63;14.60;;;;;;;;;;5049378;28;20176;-73
2022/03/05 07:12:27;;;;;;;44.60;14.40;;;-0.70;1.00;;;;;;5050201;28;20430;-73
2022/03/05 07:15:01;;;;;;;32.57;13.10;;;-0.60;1.00;;;;;;5051626;28;20179;-74
2022/03/05 07:17:30;;;;;;;31.55;13.30;;;-0.60;1.00;;;;;;5063548;28;20220;-73
2022/03/05 07:19:56;;;;;;;40.45;13.77;;;-0.50;1.00;;;;;;5054604;28;20579;-74
2022/03/05 07:22:24;;;;;;;37.40;14.30;;;-1.00;1.00;;;;;;5068779;28;20172;-73
2022/03/05 07:24:50;;;;;;;34.33;14.40;;;-0.30;1.00;;;;;;5056400;28;20429;-74
2022/03/05 07:27:18;;;;;;;33.60;13.45;;;-0.20;1.00;;;;;;5072332;28;20557;-73
2022/03/05 07:29:46;;;;;;;39.17;13.65;;;-0.20;1.00;;;;;;5057254;28;20202;-74
2022/03/05 07:32:24;;;;;;;37.95;14.00;;;0.00;1.00;;;;;;5058334;28;20230;-73
2022/03/05 07:34:50;;;;;;;40.20;13.93;;;0.00;1.00;;;;;;5047046;28;20167;-73
2022/03/05 07:37:15;;;;;;;30.73;12.80;;;0.10;1.00;;;;;;5056249;28;20184;-73
2022/03/05 07:39:41;;;;;;;40.13;14.67;;;0.30;1.00;;;;;;5053924;28;20176;-73
2022/03/05 07:42:07;;;;;;;32.27;12.80;;;0.40;1.00;;;;;;5054668;28;20592;-74
2022/03/05 07:44:36;;;;;;;38.70;13.45;;;0.40;1.00;;;;;;5055623;28;20171;-73
2022/03/05 07:47:03;;;;;;;36.45;14.57;;;0.40;1.00;;;;;;5055788;28;20204;-73
2022/03/05 07:49:30;;;;;;;29.17;12.55;;;0.60;1.00;;;;;;5066757;28;20654;-73
2022/03/05 07:51:59;;;;;;;31.83;14.23;;;0.80;1.00;;;;;;5062517;28;20325;-74
2022/03/05 07:54:27;;;;;;;31.60;13.93;;;0.90;1.00;;;;;;5058713;28;20746;-74
2022/03/05 07:56:53;;;;;;;32.70;13.40;;;1.00;1.00;;;;;;5061217;28;20268;-73
2022/03/05 07:59:24;;;;;;;29.43;12.80;;;1.20;1.00;;;;;;5058818;28;20211;-78
2022/03/05 08:02:06;;;;;;;28.20;12.95;;;1.20;1.00;;;;;;5055257;28;20438;-75
2022/03/05 08:04:44;;;;;;;33.05;14.43;;;1.40;1.00;;;;;;5054898;28;20172;-75
2022/03/05 08:07:10;;;;;;;30.13;13.88;;;1.50;1.00;;;;;;5056932;28;20179;-74
2022/03/05 08:09:36;;;;;;;32.28;13.55;;;1.60;1.00;;;;;;5054792;28;20202;-73
2022/03/05 08:12:06;;;;;;;30.40;13.20;;;1.80;1.00;;;;;;5063667;28;20737;-74
2022/03/05 08:14:32;;;;;;;33.80;13.55;;;1.80;1.00;;;;;;5064213;28;20187;-74
2022/03/05 08:17:00;;;;;;;24.23;13.03;;;1.90;1.00;;;;;;5055046;28;20168;-74
2022/03/05 08:19:26;;;;;;;29.98;12.77;;;1.90;1.00;;;;;;5067909;28;20179;-73
2022/03/05 08:21:51;;;;;;;41.67;12.97;;;2.00;1.00;;;;;;5055415;28;20648;-75
2022/03/05 08:24:24;;;;;;;25.30;10.80;;;2.00;1.00;;;;;;5058640;28;20179;-74
2022/03/05 08:26:54;;;;;;;25.73;11.60;;;2.10;1.00;;;;;;5063321;28;20204;-75
2022/03/05 08:29:30;;;;;;;29.27;10.75;;;2.30;1.00;;;;;;5088130;28;20180;-74
2022/03/05 08:32:00;;;;;;;23.00;11.40;;;2.40;1.00;;;;;;5053720;28;20632;-74
2022/03/05 08:34:26;;;;;;;26.73;12.38;;;2.40;1.00;;;;;;5061281;28;20202;-74
2022/03/05 08:36:51;;;;;;;28.90;11.87;;;2.50;1.00;;;;;;5054685;28;20269;-74
2022/03/05 08:39:25;;;;;;;28.27;12.90;;;2.60;1.00;;;;;;5058384;28;20191;-73
2022/03/05 08:41:55;;;;;;;26.48;11.93;;;2.70;1.00;;;;;;5054354;28;20172;-74
2022/03/05 08:44:20;;;;;;;25.55;9.73;;;2.70;1.00;;;;;;5052848;28;20190;-73
2022/03/05 08:46:48;;;;;;;23.67;9.43;;;2.90;1.00;;;;;;5053987;28;20200;-73
2022/03/05 08:49:18;;;;;;;23.08;9.65;;;2.90;1.00;;;;;;5062980;28;20603;-73
2022/03/05 08:51:44;;;;;;;24.88;10.43;;;3.10;1.00;;;;;;5054394;28;20258;-74
2022/03/05 08:54:10;;;;;;;21.73;9.30;;;3.00;1.00;;;;;;5055117;28;20262;-74
2022/03/05 08:56:36;;;;;;;21.25;8.98;;;3.20;1.00;;;;;;5053760;28;20203;-74
2022/03/05 08:59:02;;;;;;;24.30;9.95;;;3.20;1.00;;;;;;5067269;28;20204;-73
2022/03/05 09:01:47;;;;;;;22.40;9.47;;;3.30;1.00;;;;;;5054243;28;20237;-74
2022/03/05 09:04:30;;;;;;;22.35;10.20;;;3.40;1.00;;;;;;5051014;28;20598;-74
2022/03/05 09:06:56;;;;;;;22.33;9.18;;;3.40;1.00;;;;;;5055775;28;20206;-74
2022/03/05 09:09:21;;;;;;;21.73;9.00;;;3.50;1.00;;;;;;5054191;28;20525;-74
2022/03/05 09:11:47;;;;;;;26.20;8.90;;;3.60;1.00;;;;;;5058887;28;20430;-74
2022/03/05 09:14:30;;;;;;;22.70;8.73;;;3.60;1.00;;;;;;5067065;28;20424;-75
2022/03/05 09:16:56;;;;;;;21.27;10.07;;;3.70;1.00;;;;;;5041253;28;20422;-75
2022/03/05 09:19:24;;;;;;;25.00;9.05;;;3.70;1.00;;;;;;5053767;28;20183;-75
2022/03/05 09:21:50;;;;;;;21.92;9.95;;;6.00;1.00;;;;;;5054396;28;20187;-74
2022/03/05 09:24:36;;;;;;;20.93;8.60;;;3.90;1.00;;;;;;5055346;28;20183;-75
2022/03/05 09:27:02;;;;;;;19.60;9.70;;;4.00;1.00;;;;;;5057230;28;20208;-74
2022/03/05 09:29:28;;;;;;;19.80;8.90;;;4.00;1.00;;;;;;5053749;28;20175;-75
2022/03/05 09:31:55;;;;;;;22.43;9.50;;;4.20;1.00;;;;;;5053367;28;20414;-75
2022/03/05 09:34:20;;;;;;;19.00;8.53;;;4.20;1.00;;;;;;5054395;28;20164;-74
2022/03/05 09:36:46;;;;;;;18.60;9.43;;;5.30;1.00;;;;;;5064577;28;20439;-73
2022/03/05 09:39:19;;;;;;;18.67;8.33;;;4.40;1.00;;;;;;5058115;28;20430;-73
2022/03/05 09:41:48;;;;;;;26.52;9.52;;;4.60;1.00;;;;;;5045022;28;20191;-73
2022/03/05 09:44:18;;;;;;;25.67;10.17;;;4.60;1.00;;;;;;5054778;28;20215;-73
2022/03/05 09:46:46;;;;;;;18.67;8.73;;;4.70;1.00;;;;;;5051537;28;20869;-73
2022/03/05 09:49:12;;;;;;;22.30;9.60;;;4.70;1.00;;;;;;5056560;28;20453;-73
2022/03/05 09:51:45;;;;;;;26.47;10.53;;;6.40;1.00;;;;;;5053247;28;20914;-73
2022/03/05 09:54:11;;;;;;;21.20;9.53;;;4.90;1.00;;;;;;5049982;28;20469;-73
2022/03/05 09:56:42;;;;;;;22.00;10.27;;;5.00;1.00;;;;;;5061808;28;20777;-74
2022/03/05 09:59:12;;;;;;;20.67;9.50;;;5.00;1.00;;;;;;5089619;28;20420;-75
2022/03/05 10:01:39;;;;;;;24.53;9.63;;;5.10;1.00;;;;;;5054454;28;20434;-74
2022/03/05 10:04:19;;;;;;;21.40;9.87;;;5.20;1.00;;;;;;5053465;28;20449;-73
2022/03/05 10:07:03;;;;;;;21.07;9.80;;;5.30;1.00;;;;;;5053403;28;20860;-73
2022/03/05 10:09:30;;;;;;;19.93;9.20;;;5.20;1.00;;;;;;5051119;28;20433;-75
2022/03/05 10:12:00;;;;;;;30.30;10.00;;;5.40;1.00;;;;;;5054713;28;20418;-74
2022/03/05 10:14:26;;;;;;;20.80;10.00;;;5.50;1.00;;;;;;5067447;28;20418;-73
2022/03/05 10:17:01;;;;;;;20.20;10.10;;;5.50;1.00;;;;;;5055560;28;20479;-74
2022/03/05 10:19:37;;;;;;;20.50;9.60;;;5.70;1.00;;;;;;5057568;28;20472;-74
2022/03/05 10:22:05;;;;;;;20.30;9.60;;;5.70;1.00;;;;;;5058650;28;20416;-75
2022/03/05 10:24:36;;;;;;;21.70;9.50;;;5.80;1.00;;;;;;5061638;28;20402;-74
2022/03/05 10:27:03;;;;;;;19.87;9.40;;;5.80;1.00;;;;;;5063004;28;20980;-74
2022/03/05 10:29:36;;;;;;;18.53;8.33;;;5.90;1.00;;;;;;5059687;28;20425;-74
2022/03/05 10:32:05;;;;;;;17.03;8.00;;;6.10;1.00;;;;;;5047742;28;20437;-74
2022/03/05 10:34:52;;;;;;;17.03;8.67;;;6.40;1.00;;;;;;5072075;28;20417;-74
2022/03/05 10:37:51;;;;;;;19.23;7.57;;;6.40;1.00;;;;;;5053321;28;20468;-76
2022/03/05 10:40:25;;;;;;;160.10;66.20;;;6.80;1.00;;;;;;5047180;28;20428;-76
2022/03/05 10:42:51;;;;;;;113.03;41.70;;;6.80;1.00;;;;;;5067318;28;20439;-75
2022/03/05 10:45:18;;;;;;;29.37;13.40;;;7.00;1.00;;;;;;5062450;28;20488;-76
2022/03/05 10:47:47;;;;;;;97.47;40.80;;;7.30;1.00;;;;;;5059858;28;20612;-76
2022/03/05 10:50:24;;;;;;;25.00;11.90;;;7.40;1.00;;;;;;5063322;28;20556;-75
2022/03/05 10:53:00;;;;;;;40.07;18.67;;;7.20;1.00;;;;;;5053702;28;20435;-75
2022/03/05 10:55:36;;;;;;;87.47;35.53;;;7.20;1.00;;;;;;5052848;28;20422;-75
2022/03/05 10:58:17;;;;;;;130.50;54.70;;;7.70;1.00;;;;;;5052281;28;20441;-75
2022/03/05 11:00:49;;;;;;;223.80;89.83;;;7.70;1.00;;;;;;5067339;28;20449;-75
2022/03/05 11:03:24;;;;;;;36.47;17.10;;;7.70;1.00;;;;;;5067040;28;20489;-75
2022/03/05 11:05:50;;;;;;;48.83;22.20;;;7.70;1.00;;;;;;5053822;28;20449;-75
2022/03/05 11:08:17;;;;;;;22.23;11.53;;;7.70;1.00;;;;;;5057223;28;20762;-75
2022/03/05 11:10:48;;;;;;;69.10;29.77;;;8.00;1.00;;;;;;5056728;28;20175;-75
2022/03/05 11:13:18;;;;;;;54.10;21.97;;;8.70;1.00;;;;;;5068996;28;20439;-75
2022/03/05 11:15:48;;;;;;;37.27;17.37;;;8.20;1.00;;;;;;5062458;28;20421;-75
2022/03/05 11:18:18;;;;;;;43.00;19.23;;;8.20;1.00;;;;;;5057513;28;20468;-75
2022/03/05 11:20:45;;;;;;;25.17;12.00;;;8.20;1.00;;;;;;5059402;28;20425;-75
2022/03/05 11:23:12;;;;;;;27.20;12.53;;;8.40;1.00;;;;;;5070643;28;20417;-75
2022/03/05 11:26:13;;;;;;;55.90;23.77;;;8.60;99.90;;;;;;5069617;28;20477;-76
2022/03/05 11:28:48;;;;;;;55.80;24.40;;;8.80;99.90;;;;;;5071746;28;20979;-78
2022/03/05 11:31:28;;;;;;;189.43;71.10;;;8.90;99.90;;;;;;5068541;28;20737;-78
2022/03/05 11:33:54;;;;;;;37.13;16.77;;;9.10;99.90;;;;;;5052916;28;20417;-78
2022/03/05 11:36:26;;;;;;;275.70;101.90;;;9.00;99.90;;;;;;5074137;28;20416;-78
2022/03/05 11:39:27;;;;;;;21.27;11.87;;;9.10;99.90;;;;;;5076838;28;20220;-74
2022/03/05 11:42:08;;;;;;;97.37;40.87;;;9.10;99.90;;;;;;5045863;28;20938;-74
2022/03/05 11:44:41;;;;;;;41.17;19.10;;;9.30;99.90;;;;;;5056270;28;20390;-74
2022/03/05 11:47:19;;;;;;;36.93;16.47;;;9.50;99.90;;;;;;5055388;28;20465;-74
2022/03/05 11:50:00;;;;;;;86.90;36.23;;;9.50;99.90;;;;;;5069377;28;20419;-74
2022/03/05 11:52:41;;;;;;;103.73;43.93;;;9.60;99.90;;;;;;5060340;28;20450;-74
2022/03/05 11:55:26;;;;;;;42.10;20.40;;;9.80;99.90;;;;;;5046677;28;20414;-78
2022/03/05 11:57:51;;;;;;;20.73;8.47;;;9.80;99.90;;;;;;5054737;28;20817;-78
2022/03/05 12:00:55;;;;;;;56.37;26.77;;;9.90;99.90;;;;;;5067895;28;20439;-77
2022/03/05 12:03:42;;;;;;;14.97;8.00;;;10.10;99.90;;;;;;5048001;28;20258;-77
2022/03/05 12:06:18;;;;;;;18.57;9.10;;;10.70;99.90;;;;;;5055486;28;20446;-78
2022/03/05 12:08:53;;;;;;;21.53;11.67;;;10.70;99.90;;;;;;5068914;28;20442;-74
2022/03/05 12:11:35;;;;;;;62.07;36.57;;;10.70;99.90;;;;;;5055455;28;20489;-74
2022/03/05 12:14:01;;;;;;;9.50;5.57;;;10.70;99.90;;;;;;5055612;28;20744;-75
2022/03/05 12:16:29;;;;;;;13.73;8.10;;;10.60;99.90;;;;;;5055225;28;20442;-74
2022/03/05 12:19:07;;;;;;;55.83;26.30;;;10.50;99.90;;;;;;5064646;28;20211;-75
2022/03/05 12:21:34;;;;;;;38.73;17.17;;;10.70;99.90;;;;;;5054724;28;20429;-74
2022/03/05 12:24:01;;;;;;;336.17;143.77;;;10.70;99.90;;;;;;5062021;28;20428;-77
2022/03/05 12:26:40;;;;;;;31.50;15.93;;;10.80;99.90;;;;;;5061963;28;20456;-77
2022/03/05 12:29:08;;;;;;;194.77;81.67;;;10.60;99.90;;;;;;5066357;28;20436;-75
2022/03/05 12:31:44;;;;;;;53.57;26.00;;;10.80;99.90;;;;;;5057845;28;20468;-75
2022/03/05 12:34:11;;;;;;;17.37;9.50;;;10.80;99.90;;;;;;5064544;28;20401;-75
2022/03/05 12:36:44;;;;;;;10.00;5.77;;;10.80;99.90;;;;;;5060540;28;20823;-75
2022/03/05 12:39:14;;;;;;;10.17;5.20;;;10.50;99.90;;;;;;5065258;28;20494;-75
2022/03/05 12:42:06;;;;;;;9.43;5.73;;;10.30;99.90;;;;;;5053579;28;20515;-75
2022/03/05 12:44:48;;;;;;;9.20;6.10;;;10.30;99.90;;;;;;5050215;28;20820;-78
2022/03/05 12:47:32;;;;;;;28.53;14.27;;;10.20;99.90;;;;;;5054324;28;20491;-76
2022/03/05 12:50:20;;;;;;;10.17;4.93;;;10.20;99.90;;;;;;5060491;28;20762;-76
2022/03/05 12:52:57;;;;;;;41.90;19.93;;;9.90;99.90;;;;;;5031195;28;20943;-75
2022/03/05 12:55:58;;;;;;;11.70;6.20;;;9.60;99.90;;;;;;5013107;28;20429;-75
2022/03/05 12:58:32;;;;;;;17.67;7.40;;;9.70;99.90;;;;;;5013164;28;20407;-75
2022/03/05 13:01:08;;;;;;;24.60;12.07;;;9.50;99.90;;;;;;5012723;28;20405;-75